Братск

Карта отелей и гостиниц, располагающихся рядом с аэропортом Братск :

Братск Иркутская область 56° 22' 14.2212" N, 101° 41' 54.42" E
Код аэродрома ИКАО: 
UIBB
Код аэродрома RU: 
УИББ
Координаты: 
N56.37062° E101.69845°
Превышение над уровнем моря : 
490
Основная полоса: 
12/30
Курс магнитный: 
116/296
Длина основной ВПП: 
3200
Ширина основной ВПП: 
60
Покрытие основной ВПП: 
Твёрдое
Тип: 
Аэродром
Освещение ВПП: 
Постоянное
Класс аэродрома: 
Международный
Статус: 
Действующий
Принадлежность: 
ГА
Сайт: 
http://www.aviapages.ru/airports/512271008332632.shtml
Страна: 
Россия
Регион: 
Иркутская область
Дополнительная информация: 
Эксплуатант: ОАО "Братское АП". Военный индекс: XIBB / ЬИББ.
Схемы аэропортов: 
Погода: 

Авиационная погода в Братске

Регион: 
Погода METAR: 
UIBB 110330Z VRB01MPS 9999 NSC 25/12 Q1006 R30/CLRD60 NOSIG RMK QFE712/0950
Время наблюдения: 
2020-08-11T03:30:00Z
Температура C: 
25.0
Точка росы: 
12.0
Направление ветра: 
0
Скорость ветра: 
2
Метеорологическая видимость: 
6.21
Условия полета: 
VFR
Аэропорт подробнее: 

Найти трансфер

С помощью этой формы Вы можете найти трансфер из аэропорта Братск в город, аэропорт или вокзал:

Карта места

Javascript is required to view this map.

Погода в аэропортах:

Авиационная погода в аэропорту Семей

Регион: 
Погода METAR: 
UASS 110325Z 32002MPS 270V030 9999 -SHRA BKN043CB 24/14 Q1000 R08/0///60 NOSIG RMK QFE730/0973
Время наблюдения: 
2020-08-11T03:25:00Z
Температура C: 
24.0
Точка росы: 
14.0
Направление ветра: 
320
Скорость ветра: 
4
Метеорологическая видимость: 
6.21
Явления погоды: 
-SHRA
Условия полета: 
VFR
Аэропорт подробнее: 

Авиационная погода в Вадсё

Регион: 
Погода METAR: 
ENVD 110350Z 29005KT 9999 VCSH FEW015 SCT026 BKN035 09/08 Q1026
Время наблюдения: 
2020-08-11T03:50:00Z
Температура C: 
9.0
Точка росы: 
8.0
Направление ветра: 
290
Скорость ветра: 
5
Метеорологическая видимость: 
6.21
Явления погоды: 
VCSH
Условия полета: 
VFR

Авиационная погода в аэропорту Новый

Регион: 
Погода METAR: 
UHHH 110330Z 02003MPS 8000 -SHRA BKN040CB 23/21 Q1000 R23L/290045 TEMPO 2000 SHRA RMK QFE744/0992
Время наблюдения: 
2020-08-11T03:30:00Z
Температура C: 
23.0
Точка росы: 
21.0
Направление ветра: 
20
Скорость ветра: 
6
Метеорологическая видимость: 
4.97
Явления погоды: 
-SHRA
Условия полета: 
MVFR
Аэропорт подробнее: 

Авиационная погода в Челябинске

Регион: 
Погода METAR: 
USCC 110330Z 33006MPS 1900 DZ BR OVC004 14/14 Q0996 R27/290050 NOSIG RMK QFE727
Время наблюдения: 
2020-08-11T03:30:00Z
Температура C: 
14.0
Точка росы: 
14.0
Направление ветра: 
330
Скорость ветра: 
12
Метеорологическая видимость: 
1.18
Явления погоды: 
DZ BR
Условия полета: 
LIFR
Аэропорт подробнее: